createdAt,value
2018-05-09T00:00:46.783Z,7.53
2018-05-09T00:03:14.246Z,6.27
2018-05-09T00:05:41.720Z,8.30
2018-05-09T00:08:09.290Z,8.30
2018-05-09T00:10:36.774Z,6.80
2018-05-09T00:13:05.010Z,7.43
2018-05-09T00:15:32.477Z,6.03
2018-05-09T00:17:59.952Z,8.67
2018-05-09T00:20:27.414Z,5.97
2018-05-09T00:22:54.851Z,6.47
2018-05-09T00:25:22.320Z,5.83
2018-05-09T00:27:49.780Z,7.60
2018-05-09T00:30:17.271Z,7.80
2018-05-09T00:32:44.836Z,6.53
2018-05-09T00:35:12.271Z,7.33
2018-05-09T00:37:39.735Z,7.10
2018-05-09T00:40:07.208Z,6.43
2018-05-09T00:42:34.673Z,7.07
2018-05-09T00:45:02.125Z,7.07
2018-05-09T00:47:29.592Z,7.10
2018-05-09T00:49:57.159Z,6.70
2018-05-09T00:52:24.993Z,7.43
2018-05-09T00:54:52.505Z,5.70
2018-05-09T00:57:20.727Z,7.73
2018-05-09T00:59:48.247Z,7.53
2018-05-09T01:02:15.804Z,7.37
2018-05-09T01:04:43.269Z,7.33
2018-05-09T01:07:10.713Z,6.10
2018-05-09T01:09:38.197Z,7.30
2018-05-09T01:12:05.648Z,6.57
2018-05-09T01:14:33.113Z,7.83
2018-05-09T01:17:00.681Z,9.47
2018-05-09T01:19:28.126Z,7.40
2018-05-09T01:21:55.592Z,8.33
2018-05-09T01:24:23.043Z,8.87
2018-05-09T01:26:50.513Z,7.60
2018-05-09T01:29:18.000Z,8.40
2018-05-09T01:31:45.483Z,7.73
2018-05-09T01:34:13.763Z,7.70
2018-05-09T01:36:42.007Z,8.50
2018-05-09T01:39:09.481Z,9.70
2018-05-09T01:41:37.049Z,9.20
2018-05-09T01:44:05.309Z,9.87
2018-05-09T01:46:32.770Z,9.10
2018-05-09T01:49:00.237Z,9.60
2018-05-09T01:51:27.815Z,8.73
2018-05-09T01:53:55.262Z,9.27
2018-05-09T01:56:22.834Z,9.17
2018-05-09T01:58:50.863Z,11.60
2018-05-09T02:01:18.367Z,10.37
2018-05-09T02:03:45.915Z,10.43
2018-05-09T02:06:13.415Z,9.33
2018-05-09T02:08:40.970Z,13.20
2018-05-09T02:11:08.434Z,10.03
2018-05-09T02:13:35.900Z,12.93
2018-05-09T02:16:04.138Z,10.37
2018-05-09T02:18:31.621Z,13.40
2018-05-09T02:20:59.068Z,13.50
2018-05-09T02:23:26.530Z,14.30
2018-05-09T02:25:54.007Z,17.53
2018-05-09T02:28:22.239Z,14.33
2018-05-09T02:30:49.705Z,19.70
2018-05-09T02:33:17.170Z,13.53
2018-05-09T02:35:44.650Z,13.43
2018-05-09T02:38:12.139Z,14.97
2018-05-09T02:40:39.609Z,13.57
2018-05-09T02:43:07.164Z,15.50
2018-05-09T02:45:34.741Z,18.23
2018-05-09T02:48:02.313Z,23.93
2018-05-09T02:50:29.868Z,17.37
2018-05-09T02:52:58.864Z,19.57
2018-05-09T02:55:26.362Z,19.23
2018-05-09T02:57:54.600Z,17.57
2018-05-09T03:00:22.075Z,20.03
2018-05-09T03:02:49.552Z,18.03
2018-05-09T03:05:18.176Z,17.03
2018-05-09T03:07:45.641Z,21.57
2018-05-09T03:10:13.097Z,18.17
2018-05-09T03:12:40.564Z,21.67
2018-05-09T03:15:08.027Z,19.50
2018-05-09T03:17:35.528Z,19.43
2018-05-09T03:20:03.773Z,17.53
2018-05-09T03:22:31.259Z,20.80
2018-05-09T03:24:58.835Z,16.67
2018-05-09T03:27:26.312Z,17.33
2018-05-09T03:29:54.570Z,24.40
2018-05-09T03:32:22.034Z,20.50
2018-05-09T03:34:49.535Z,17.97
2018-05-09T03:37:17.765Z,18.57
2018-05-09T03:39:45.230Z,16.97
2018-05-09T03:42:12.692Z,18.00
2018-05-09T03:44:40.169Z,18.10
2018-05-09T03:47:07.726Z,21.67
2018-05-09T03:49:35.196Z,18.00
2018-05-09T03:52:02.669Z,17.17
2018-05-09T03:54:30.906Z,18.87
2018-05-09T03:56:58.449Z,19.90
2018-05-09T03:59:25.964Z,17.67
2018-05-09T04:02:05.428Z,17.67
2018-05-09T04:04:45.704Z,16.80
2018-05-09T04:07:25.237Z,18.83
2018-05-09T04:09:56.737Z,16.27
2018-05-09T04:12:25.086Z,15.80
2018-05-09T04:14:52.606Z,16.63
2018-05-09T04:17:20.025Z,17.77
2018-05-09T04:19:47.483Z,16.27
2018-05-09T04:22:14.976Z,14.10
2018-05-09T04:24:42.435Z,17.67
2018-05-09T04:27:09.903Z,19.03
2018-05-09T04:29:37.373Z,17.07
2018-05-09T04:32:05.999Z,16.80
2018-05-09T04:34:33.463Z,16.03
2018-05-09T04:37:00.929Z,17.57
2018-05-09T04:39:28.396Z,14.43
2018-05-09T04:41:55.890Z,17.07
2018-05-09T04:44:23.345Z,15.60
2018-05-09T04:46:50.805Z,19.53
2018-05-09T04:49:18.380Z,17.50
2018-05-09T04:51:45.831Z,15.20
2018-05-09T04:54:13.307Z,15.50
2018-05-09T04:56:40.783Z,17.03
2018-05-09T04:59:09.052Z,16.37
2018-05-09T05:01:36.535Z,15.87
2018-05-09T05:04:04.769Z,17.40
2018-05-09T05:06:32.260Z,18.93
2018-05-09T05:08:59.716Z,14.80
2018-05-09T05:11:28.695Z,18.07
2018-05-09T05:13:56.276Z,17.30
2018-05-09T05:16:25.239Z,16.23
2018-05-09T05:18:52.699Z,14.70
2018-05-09T05:21:20.177Z,14.73
2018-05-09T05:23:47.635Z,21.47
2018-05-09T05:26:15.100Z,19.90
2018-05-09T05:28:42.602Z,19.50
2018-05-09T05:31:10.051Z,16.67
2018-05-09T05:33:37.588Z,20.73
2018-05-09T05:36:05.074Z,20.03
2018-05-09T05:38:33.197Z,14.60
2018-05-09T05:41:00.660Z,16.37
2018-05-09T05:43:28.111Z,18.33
2018-05-09T05:45:55.598Z,18.47
2018-05-09T05:48:23.084Z,16.90
2018-05-09T05:50:50.577Z,15.50
2018-05-09T05:53:18.821Z,16.50
2018-05-09T05:55:47.108Z,18.00
2018-05-09T05:58:14.685Z,14.67
2018-05-09T06:00:42.264Z,17.13
2018-05-09T06:03:10.507Z,20.87
2018-05-09T06:05:37.956Z,16.90
2018-05-09T06:08:05.432Z,20.23
2018-05-09T06:10:33.017Z,21.37
2018-05-09T06:13:00.508Z,19.43
2018-05-09T06:15:28.747Z,16.40
2018-05-09T06:17:56.326Z,21.67
2018-05-09T06:20:23.890Z,22.70
2018-05-09T06:22:51.431Z,15.17
2018-05-09T06:25:18.911Z,15.47
2018-05-09T06:27:47.244Z,15.77
2018-05-09T06:30:15.478Z,14.57
2018-05-09T06:32:44.441Z,17.60
2018-05-09T06:35:12.291Z,15.63
2018-05-09T06:37:39.815Z,14.77
2018-05-09T06:40:07.364Z,14.10
2018-05-09T06:42:34.933Z,15.77
2018-05-09T06:45:03.213Z,15.57
2018-05-09T06:47:30.695Z,17.63
2018-05-09T06:49:59.106Z,18.27
2018-05-09T06:52:26.524Z,18.30
2018-05-09T06:54:54.063Z,20.70
2018-05-09T06:57:21.527Z,15.97
2018-05-09T06:59:49.031Z,14.47
2018-05-09T07:02:16.469Z,18.33
2018-05-09T07:04:43.936Z,16.67
2018-05-09T07:07:11.477Z,18.90
2018-05-09T07:09:38.974Z,17.60
2018-05-09T07:12:07.194Z,21.57
2018-05-09T07:14:34.701Z,18.57
2018-05-09T07:17:02.165Z,16.20
2018-05-09T07:19:29.731Z,19.53
2018-05-09T07:21:57.208Z,22.40
2018-05-09T07:24:25.462Z,19.17
2018-05-09T07:26:53.037Z,15.60
2018-05-09T07:29:21.299Z,16.83
2018-05-09T07:31:48.785Z,15.13
2018-05-09T07:34:16.265Z,19.97
2018-05-09T07:36:44.487Z,21.17
2018-05-09T07:39:12.089Z,20.00
2018-05-09T07:41:39.549Z,17.57
2018-05-09T07:44:07.007Z,24.97
2018-05-09T07:46:35.306Z,18.60
2018-05-09T07:49:03.545Z,19.60
2018-05-09T07:51:32.779Z,18.90
2018-05-09T07:54:00.234Z,17.80
2018-05-09T07:56:27.706Z,20.50
2018-05-09T07:58:55.246Z,17.67
2018-05-09T08:01:22.814Z,18.10
2018-05-09T08:03:50.270Z,20.17
2018-05-09T08:06:17.841Z,16.53
2018-05-09T08:08:45.308Z,19.27
2018-05-09T08:11:12.882Z,17.87
2018-05-09T08:13:40.502Z,17.60
2018-05-09T08:16:07.978Z,17.87
2018-05-09T08:18:35.446Z,20.60
2018-05-09T08:21:02.932Z,21.17
2018-05-09T08:23:30.426Z,19.47
2018-05-09T08:25:58.679Z,17.07
2018-05-09T08:28:26.141Z,17.83
2018-05-09T08:30:53.623Z,17.00
2018-05-09T08:33:21.855Z,15.37
2018-05-09T08:35:49.331Z,17.50
2018-05-09T08:38:17.648Z,14.60
2018-05-09T08:40:45.890Z,16.10
2018-05-09T08:43:13.498Z,18.40
2018-05-09T08:45:40.909Z,17.67
2018-05-09T08:48:08.481Z,16.30
2018-05-09T08:50:36.036Z,14.50
2018-05-09T08:53:03.600Z,15.07
2018-05-09T08:55:31.137Z,15.00
2018-05-09T08:57:58.627Z,17.47
2018-05-09T09:00:26.202Z,12.27
2018-05-09T09:02:53.687Z,13.27
2018-05-09T09:05:21.911Z,14.57
2018-05-09T09:07:49.406Z,14.00
2018-05-09T09:10:16.882Z,13.40
2018-05-09T09:12:45.120Z,14.70
2018-05-09T09:15:12.584Z,18.83
2018-05-09T09:17:40.060Z,17.27
2018-05-09T09:20:07.542Z,17.17
2018-05-09T09:22:34.992Z,14.53
2018-05-09T09:25:02.553Z,13.73
2018-05-09T09:27:30.040Z,12.03
2018-05-09T09:29:57.514Z,13.87
2018-05-09T09:32:25.785Z,12.73
2018-05-09T09:34:54.115Z,12.53
2018-05-09T09:37:21.773Z,11.93
2018-05-09T09:39:49.423Z,12.70
2018-05-09T09:42:16.887Z,10.07
2018-05-09T09:44:44.396Z,12.73
2018-05-09T09:47:11.973Z,13.50
2018-05-09T09:49:39.540Z,13.60
2018-05-09T09:52:07.000Z,14.47
2018-05-09T09:54:34.453Z,11.23
2018-05-09T09:57:03.693Z,15.33
2018-05-09T09:59:31.225Z,12.87
2018-05-09T10:01:58.687Z,14.40
2018-05-09T10:04:26.153Z,12.97
2018-05-09T10:06:53.624Z,16.37
2018-05-09T10:09:21.847Z,12.90
2018-05-09T10:11:49.357Z,16.50
2018-05-09T10:14:16.904Z,13.00
2018-05-09T10:16:44.368Z,11.87
2018-05-09T10:19:11.847Z,11.97
2018-05-09T10:21:40.816Z,12.43
2018-05-09T10:24:08.290Z,13.80
2018-05-09T10:26:35.872Z,10.23
2018-05-09T10:29:04.145Z,15.33
2018-05-09T10:31:31.704Z,12.40
2018-05-09T10:33:59.159Z,12.53
2018-05-09T10:36:26.698Z,13.27
2018-05-09T10:38:54.208Z,10.23
2018-05-09T10:41:21.877Z,14.33
2018-05-09T10:43:50.101Z,11.27
2018-05-09T10:46:17.625Z,28.40
2018-05-09T10:48:45.114Z,16.13
2018-05-09T10:51:13.366Z,15.27
2018-05-09T10:53:41.614Z,15.77
2018-05-09T10:56:09.227Z,13.43
2018-05-09T10:58:37.567Z,12.27
2018-05-09T11:01:05.023Z,11.33
2018-05-09T11:03:32.492Z,11.97
2018-05-09T11:06:00.073Z,15.47
2018-05-09T11:08:27.775Z,12.87
2018-05-09T11:10:56.130Z,9.73
2018-05-09T11:13:23.600Z,11.93
2018-05-09T11:15:51.057Z,12.83
2018-05-09T11:18:20.033Z,9.57
2018-05-09T11:20:47.605Z,9.40
2018-05-09T11:23:15.165Z,8.00
2018-05-09T11:25:43.135Z,9.17
2018-05-09T11:28:10.607Z,12.53
2018-05-09T11:30:38.165Z,10.03
2018-05-09T11:33:05.679Z,10.80
2018-05-09T11:35:33.117Z,12.10
2018-05-09T11:38:01.371Z,8.90
2018-05-09T11:40:28.847Z,12.13
2018-05-09T11:42:57.061Z,10.57
2018-05-09T11:45:25.422Z,8.87
2018-05-09T11:47:53.069Z,8.27
2018-05-09T11:50:20.580Z,9.57
2018-05-09T11:52:48.111Z,8.97
2018-05-09T11:55:16.348Z,7.70
2018-05-09T11:57:44.505Z,8.20
2018-05-09T12:00:12.022Z,8.27
2018-05-09T12:02:40.284Z,6.67
2018-05-09T12:05:08.237Z,10.97
2018-05-09T12:07:35.695Z,6.40
2018-05-09T12:10:03.148Z,7.50
2018-05-09T12:12:30.611Z,6.67
2018-05-09T12:14:58.083Z,9.60
2018-05-09T12:17:25.549Z,4.77
2018-05-09T12:19:53.047Z,6.13
2018-05-09T12:22:20.503Z,8.40
2018-05-09T12:24:47.967Z,7.97
2018-05-09T12:27:15.524Z,5.37
2018-05-09T12:29:43.076Z,8.13
2018-05-09T12:32:10.543Z,6.83
2018-05-09T12:34:38.127Z,7.70
2018-05-09T12:37:05.593Z,6.73
2018-05-09T12:39:33.830Z,9.10
2018-05-09T12:42:01.291Z,6.23
2018-05-09T12:44:28.735Z,7.97
2018-05-09T12:46:56.212Z,6.80
2018-05-09T12:49:23.667Z,6.90
2018-05-09T12:51:51.163Z,6.70
2018-05-09T12:54:18.647Z,5.23
2018-05-09T12:56:46.126Z,9.67
2018-05-09T12:59:14.357Z,7.93
2018-05-09T13:01:41.810Z,6.67
2018-05-09T13:04:09.281Z,7.77
2018-05-09T13:06:37.802Z,7.73
2018-05-09T13:09:06.133Z,10.13
2018-05-09T13:11:33.619Z,6.50
2018-05-09T13:14:01.148Z,7.57
2018-05-09T13:16:28.609Z,5.60
2018-05-09T13:18:56.120Z,8.00
2018-05-09T13:21:24.377Z,5.97
2018-05-09T13:23:51.830Z,6.50
2018-05-09T13:26:19.296Z,8.97
2018-05-09T13:28:46.841Z,8.37
2018-05-09T13:31:14.349Z,10.07
2018-05-09T13:33:41.810Z,5.77
2018-05-09T13:36:09.269Z,5.43
2018-05-09T13:38:36.833Z,5.90
2018-05-09T13:41:04.389Z,8.07
2018-05-09T13:43:31.963Z,8.07
2018-05-09T13:46:00.275Z,7.30
2018-05-09T13:48:27.731Z,5.70
2018-05-09T13:50:55.956Z,6.30
2018-05-09T13:53:23.403Z,9.83
2018-05-09T13:55:50.880Z,5.90
2018-05-09T13:58:18.360Z,5.90
2018-05-09T14:00:45.834Z,5.30
2018-05-09T14:03:13.300Z,6.77
2018-05-09T14:05:40.853Z,6.93
2018-05-09T14:08:08.334Z,5.80
2018-05-09T14:10:36.549Z,5.40
2018-05-09T14:13:04.060Z,5.13
2018-05-09T14:15:31.607Z,6.20
2018-05-09T14:17:58.978Z,7.37
2018-05-09T14:20:26.433Z,6.63
2018-05-09T14:22:53.891Z,9.37
2018-05-09T14:25:21.430Z,5.87
2018-05-09T14:27:48.957Z,5.83
2018-05-09T14:30:16.494Z,10.73
2018-05-09T14:32:43.966Z,11.83
2018-05-09T14:35:11.444Z,11.77
2018-05-09T14:37:38.905Z,12.83
2018-05-09T14:40:07.160Z,13.13
2018-05-09T14:42:34.627Z,12.77
2018-05-09T14:45:02.080Z,12.97
2018-05-09T14:47:29.548Z,12.43
2018-05-09T14:49:57.013Z,12.73
2018-05-09T14:52:24.499Z,14.90
2018-05-09T14:54:52.050Z,13.27
2018-05-09T14:57:21.098Z,13.83
2018-05-09T14:59:48.551Z,11.03
2018-05-09T15:02:16.006Z,10.73
2018-05-09T15:04:44.261Z,11.30
2018-05-09T15:07:13.229Z,7.57
2018-05-09T15:09:40.717Z,6.57
2018-05-09T15:12:09.709Z,7.40
2018-05-09T15:14:37.275Z,10.20
2018-05-09T15:17:05.499Z,5.70
2018-05-09T15:19:33.019Z,10.10
2018-05-09T15:22:00.570Z,5.07
2018-05-09T15:24:28.036Z,6.93
2018-05-09T15:26:55.581Z,4.83
2018-05-09T15:29:23.066Z,6.30
2018-05-09T15:31:51.297Z,6.07
2018-05-09T15:34:18.755Z,4.07
2018-05-09T15:36:46.225Z,7.67
2018-05-09T15:39:13.723Z,6.60
2018-05-09T15:41:41.558Z,6.53
2018-05-09T15:44:09.046Z,8.47
2018-05-09T15:46:36.524Z,5.70
2018-05-09T15:49:04.072Z,3.43
2018-05-09T15:51:31.644Z,6.57
2018-05-09T15:53:59.105Z,4.27
2018-05-09T15:56:26.567Z,4.93
2018-05-09T15:58:54.147Z,3.30
2018-05-09T16:01:23.115Z,4.23
2018-05-09T16:03:50.567Z,5.70
2018-05-09T16:06:18.024Z,4.77
2018-05-09T16:08:45.476Z,3.20
2018-05-09T16:11:12.950Z,4.97
2018-05-09T16:13:40.403Z,5.70
2018-05-09T16:16:07.876Z,4.90
2018-05-09T16:18:35.377Z,5.17
2018-05-09T16:21:02.932Z,6.57
2018-05-09T16:23:30.497Z,6.37
2018-05-09T16:25:58.061Z,8.73
2018-05-09T16:28:25.621Z,5.87
2018-05-09T16:30:53.076Z,5.23
2018-05-09T16:33:20.532Z,5.60
2018-05-09T16:35:47.991Z,6.87
2018-05-09T16:38:15.470Z,9.20
2018-05-09T16:40:42.940Z,6.67
2018-05-09T16:43:11.948Z,7.40
2018-05-09T16:45:40.200Z,6.83
2018-05-09T16:48:07.654Z,6.43
2018-05-09T16:50:35.959Z,4.83
2018-05-09T16:53:03.529Z,6.57
2018-05-09T16:55:32.509Z,5.40
2018-05-09T16:57:59.969Z,6.80
2018-05-09T17:00:27.529Z,6.13
2018-05-09T17:02:54.996Z,4.67
2018-05-09T17:05:22.459Z,5.67
2018-05-09T17:07:49.929Z,5.70
2018-05-09T17:10:17.562Z,7.50
2018-05-09T17:12:45.061Z,5.47
2018-05-09T17:15:12.527Z,6.37
2018-05-09T17:17:41.484Z,5.07
2018-05-09T17:20:08.981Z,5.00
2018-05-09T17:22:36.445Z,5.30
2018-05-09T17:25:03.909Z,4.07
2018-05-09T17:27:31.381Z,6.40
2018-05-09T17:29:59.638Z,7.83
2018-05-09T17:32:27.092Z,8.57
2018-05-09T17:34:54.684Z,5.03
2018-05-09T17:37:23.008Z,6.37
2018-05-09T17:39:50.521Z,5.40
2018-05-09T17:42:18.071Z,5.87
2018-05-09T17:44:45.533Z,6.80
2018-05-09T17:47:13.071Z,7.20
2018-05-09T17:49:41.264Z,6.47
2018-05-09T17:52:08.719Z,5.47
2018-05-09T17:54:36.883Z,7.63
2018-05-09T17:57:04.343Z,5.50
2018-05-09T17:59:31.835Z,5.80
2018-05-09T18:01:59.279Z,6.03
2018-05-09T18:04:26.735Z,6.50
2018-05-09T18:06:54.210Z,8.17
2018-05-09T18:09:21.677Z,8.43
2018-05-09T18:11:49.164Z,7.70
2018-05-09T18:14:16.734Z,7.77
2018-05-09T18:16:44.954Z,7.83
2018-05-09T18:19:12.430Z,9.13
2018-05-09T18:21:39.901Z,13.27
2018-05-09T18:24:07.383Z,8.47
2018-05-09T18:26:34.856Z,9.80
2018-05-09T18:29:02.414Z,11.20
2018-05-09T18:31:29.983Z,9.23
2018-05-09T18:33:57.543Z,10.20
2018-05-09T18:36:25.121Z,9.13
2018-05-09T18:38:53.345Z,12.10
2018-05-09T18:41:20.826Z,8.47
2018-05-09T18:43:48.275Z,9.63
2018-05-09T18:46:15.862Z,8.47
2018-05-09T18:48:44.060Z,11.17
2018-05-09T18:51:13.055Z,11.90
2018-05-09T18:53:40.616Z,14.27
2018-05-09T18:56:08.091Z,12.70
2018-05-09T18:58:37.078Z,11.83
2018-05-09T19:01:05.105Z,11.10
2018-05-09T19:03:32.603Z,11.73
2018-05-09T19:06:00.067Z,13.47
2018-05-09T19:08:27.541Z,12.20
2018-05-09T19:10:55.008Z,12.40
2018-05-09T19:13:23.973Z,12.13
2018-05-09T19:15:51.441Z,11.10
2018-05-09T19:18:19.015Z,13.00
2018-05-09T19:20:46.593Z,11.67
2018-05-09T19:23:14.251Z,11.90
2018-05-09T19:25:42.423Z,13.77
2018-05-09T19:28:09.871Z,10.80
2018-05-09T19:30:37.333Z,11.17
2018-05-09T19:33:04.810Z,9.27
2018-05-09T19:35:32.251Z,9.77
2018-05-09T19:37:59.725Z,10.40
2018-05-09T19:40:27.195Z,13.57
2018-05-09T19:42:54.735Z,9.30
2018-05-09T19:45:22.201Z,8.53
2018-05-09T19:47:49.707Z,6.70
2018-05-09T19:50:17.145Z,9.20
2018-05-09T19:52:44.717Z,6.50
2018-05-09T19:55:12.276Z,7.50
2018-05-09T19:57:39.734Z,6.13
2018-05-09T20:00:07.180Z,6.77
2018-05-09T20:02:34.638Z,7.23
2018-05-09T20:05:02.113Z,6.00
2018-05-09T20:07:29.569Z,4.60
2018-05-09T20:09:57.048Z,4.60
2018-05-09T20:12:24.632Z,4.17
2018-05-09T20:14:52.183Z,3.80
2018-05-09T20:17:20.335Z,4.10
2018-05-09T20:19:47.811Z,4.50
2018-05-09T20:22:15.276Z,6.33
2018-05-09T20:24:42.827Z,6.10
2018-05-09T20:27:10.288Z,3.57
2018-05-09T20:29:37.746Z,3.83
2018-05-09T20:32:17.008Z,3.77
2018-05-09T20:34:44.568Z,3.30
2018-05-09T20:37:12.042Z,4.33
2018-05-09T20:39:40.269Z,3.10
2018-05-09T20:42:07.860Z,3.17
2018-05-09T20:44:35.249Z,4.30
2018-05-09T20:47:03.489Z,2.97
2018-05-09T20:49:30.964Z,2.77
2018-05-09T20:51:58.414Z,3.37
2018-05-09T20:54:25.874Z,5.10
2018-05-09T20:56:53.360Z,3.67
2018-05-09T20:59:20.924Z,3.20
2018-05-09T21:01:49.099Z,2.93
2018-05-09T21:04:16.656Z,3.20
2018-05-09T21:06:44.234Z,3.27
2018-05-09T21:09:11.774Z,3.33
2018-05-09T21:11:39.943Z,3.23
2018-05-09T21:14:07.392Z,3.07
2018-05-09T21:16:34.890Z,3.97
2018-05-09T21:19:02.370Z,3.50
2018-05-09T21:21:29.920Z,3.37
2018-05-09T21:23:57.377Z,3.63
2018-05-09T21:26:24.832Z,4.20
2018-05-09T21:28:52.768Z,4.00
2018-05-09T21:31:20.285Z,2.90
2018-05-09T21:33:47.823Z,3.30
2018-05-09T21:36:15.292Z,3.83
2018-05-09T21:38:42.761Z,4.70
2018-05-09T21:41:10.319Z,5.37
2018-05-09T21:43:37.794Z,5.13
2018-05-09T21:46:05.253Z,4.07
2018-05-09T21:48:32.823Z,3.03
2018-05-09T21:51:00.298Z,3.17
2018-05-09T21:53:28.540Z,3.43
2018-05-09T21:55:56.069Z,4.83
2018-05-09T21:58:23.575Z,4.63
2018-05-09T22:00:51.031Z,3.57
2018-05-09T22:03:18.535Z,3.77
2018-05-09T22:05:46.755Z,2.90
2018-05-09T22:08:14.239Z,3.13
2018-05-09T22:10:41.749Z,4.73
2018-05-09T22:13:09.192Z,3.50
2018-05-09T22:15:37.428Z,2.80
2018-05-09T22:18:04.926Z,2.70
2018-05-09T22:20:32.384Z,3.13
2018-05-09T22:22:59.932Z,3.20
2018-05-09T22:25:27.389Z,2.83
2018-05-09T22:27:54.855Z,3.90
2018-05-09T22:30:22.333Z,3.13
2018-05-09T22:32:49.879Z,2.80
2018-05-09T22:35:17.369Z,3.53
2018-05-09T22:37:45.601Z,3.17
2018-05-09T22:40:13.055Z,3.57
2018-05-09T22:42:40.541Z,3.17
2018-05-09T22:45:08.940Z,2.70
2018-05-09T22:47:36.400Z,2.90
2018-05-09T22:50:03.963Z,2.53
2018-05-09T22:52:31.431Z,2.77
2018-05-09T22:54:59.074Z,3.27
2018-05-09T22:57:26.453Z,2.53
2018-05-09T22:59:53.908Z,4.17
2018-05-09T23:02:21.375Z,2.90
2018-05-09T23:04:48.856Z,3.93
2018-05-09T23:07:17.087Z,3.27
2018-05-09T23:09:44.556Z,3.40
2018-05-09T23:12:12.024Z,4.30
2018-05-09T23:14:39.613Z,2.97
2018-05-09T23:17:07.131Z,3.87
2018-05-09T23:19:35.340Z,3.10
2018-05-09T23:22:02.807Z,3.40
2018-05-09T23:24:30.265Z,3.37
2018-05-09T23:26:57.833Z,3.40
2018-05-09T23:29:25.336Z,3.70
2018-05-09T23:31:53.566Z,3.37
2018-05-09T23:34:21.037Z,3.37
2018-05-09T23:36:48.506Z,3.57
2018-05-09T23:39:15.960Z,3.90
2018-05-09T23:41:43.519Z,3.70
2018-05-09T23:44:10.972Z,3.47
2018-05-09T23:46:38.437Z,4.07
2018-05-09T23:49:05.917Z,3.97
2018-05-09T23:51:33.473Z,3.27
2018-05-09T23:54:00.936Z,3.23
2018-05-09T23:56:28.487Z,3.77
2018-05-09T23:58:56.068Z,3.27
